createdAt,value
2018-05-21T00:01:39.944Z,99.90
2018-05-21T00:04:07.562Z,99.90
2018-05-21T00:06:35.148Z,99.90
2018-05-21T00:09:03.513Z,99.90
2018-05-21T00:11:31.198Z,99.90
2018-05-21T00:13:59.897Z,99.90
2018-05-21T00:16:28.592Z,99.90
2018-05-21T00:18:56.941Z,99.90
2018-05-21T00:21:24.560Z,99.90
2018-05-21T00:23:52.175Z,99.90
2018-05-21T00:26:19.797Z,99.90
2018-05-21T00:28:47.412Z,99.90
2018-05-21T00:31:15.743Z,99.90
2018-05-21T00:33:43.376Z,99.90
2018-05-21T00:36:11.040Z,99.90
2018-05-21T00:38:39.416Z,99.90
2018-05-21T00:41:07.042Z,99.90
2018-05-21T00:43:34.645Z,99.90
2018-05-21T00:46:02.240Z,99.90
2018-05-21T00:48:30.657Z,99.90
2018-05-21T00:50:58.231Z,99.90
2018-05-21T00:53:25.838Z,99.90
2018-05-21T00:55:53.452Z,99.90
2018-05-21T00:58:21.052Z,99.90
2018-05-21T01:00:48.672Z,99.90
2018-05-21T01:03:16.674Z,99.90
2018-05-21T01:05:44.335Z,99.90
2018-05-21T01:08:11.947Z,99.90
2018-05-21T01:10:39.571Z,99.90
2018-05-21T01:13:07.184Z,99.90
2018-05-21T01:15:35.627Z,99.90
2018-05-21T01:18:03.961Z,99.90
2018-05-21T01:20:32.364Z,99.90
2018-05-21T01:22:59.982Z,99.90
2018-05-21T01:25:27.568Z,99.90
2018-05-21T01:27:55.973Z,99.90
2018-05-21T01:30:23.630Z,99.90
2018-05-21T01:32:52.034Z,99.90
2018-05-21T01:35:19.621Z,99.90
2018-05-21T01:37:47.225Z,99.90
2018-05-21T01:40:14.809Z,99.90
2018-05-21T01:42:42.411Z,99.90
2018-05-21T01:45:10.030Z,99.90
2018-05-21T01:47:38.413Z,99.90
2018-05-21T01:50:06.799Z,99.90
2018-05-21T01:52:35.158Z,99.90
2018-05-21T01:55:02.757Z,99.90
2018-05-21T01:57:31.536Z,99.90
2018-05-21T01:59:59.896Z,99.90
2018-05-21T02:02:27.486Z,99.90
2018-05-21T02:04:55.151Z,99.90
2018-05-21T02:07:23.773Z,99.90
2018-05-21T02:09:51.421Z,99.90
2018-05-21T02:12:19.798Z,99.90
2018-05-21T02:14:48.165Z,99.90
2018-05-21T02:17:16.583Z,99.90
2018-05-21T02:19:44.216Z,99.90
2018-05-21T02:22:11.843Z,99.90
2018-05-21T02:24:39.420Z,99.90
2018-05-21T02:27:07.067Z,99.90
2018-05-21T02:29:35.424Z,99.90
2018-05-21T02:32:03.025Z,99.90
2018-05-21T02:34:30.619Z,99.90
2018-05-21T02:36:58.243Z,99.90
2018-05-21T02:39:26.584Z,99.90
2018-05-21T02:41:54.934Z,99.90
2018-05-21T02:44:22.563Z,99.90
2018-05-21T02:46:50.177Z,99.90
2018-05-21T02:49:17.761Z,99.90
2018-05-21T02:51:46.152Z,99.90
2018-05-21T02:54:14.530Z,99.90
2018-05-21T02:56:42.940Z,99.90
2018-05-21T02:59:10.533Z,99.90
2018-05-21T03:01:38.155Z,99.90
2018-05-21T03:04:05.785Z,99.90
2018-05-21T03:06:33.377Z,99.90
2018-05-21T03:09:01.727Z,99.90
2018-05-21T03:11:29.337Z,99.90
2018-05-21T03:13:56.968Z,99.90
2018-05-21T03:16:24.553Z,99.90
2018-05-21T03:18:52.149Z,99.90
2018-05-21T03:21:19.776Z,99.90
2018-05-21T03:23:47.387Z,99.90
2018-05-21T03:26:15.012Z,99.90
2018-05-21T03:28:42.653Z,99.90
2018-05-21T03:31:10.248Z,99.90
2018-05-21T03:33:37.852Z,99.90
2018-05-21T03:36:05.465Z,99.90
2018-05-21T03:38:33.046Z,99.90
2018-05-21T03:41:01.406Z,99.90
2018-05-21T03:43:29.018Z,99.90
2018-05-21T03:45:56.617Z,99.90
2018-05-21T03:48:24.247Z,99.90
2018-05-21T03:50:52.594Z,99.90
2018-05-21T03:53:20.255Z,99.90
2018-05-21T03:55:47.850Z,99.90
2018-05-21T03:58:28.028Z,99.90
2018-05-21T04:01:07.552Z,99.90
2018-05-21T04:03:47.678Z,99.90
2018-05-21T04:06:15.316Z,99.90
2018-05-21T04:08:42.938Z,99.90
2018-05-21T04:11:10.862Z,99.90
2018-05-21T04:13:38.444Z,99.90
2018-05-21T04:16:06.061Z,99.90
2018-05-21T04:18:33.664Z,99.90
2018-05-21T04:21:01.293Z,99.90
2018-05-21T04:23:28.885Z,99.90
2018-05-21T04:25:56.711Z,99.90
2018-05-21T04:28:24.331Z,99.90
2018-05-21T04:30:51.923Z,99.90
2018-05-21T04:33:21.165Z,99.90
2018-05-21T04:35:48.803Z,99.90
2018-05-21T04:38:17.188Z,99.90
2018-05-21T04:40:45.558Z,99.90
2018-05-21T04:43:13.911Z,99.90
2018-05-21T04:45:41.560Z,99.90
2018-05-21T04:48:09.176Z,99.90
2018-05-21T04:50:37.528Z,99.90
2018-05-21T04:53:05.167Z,99.90
2018-05-21T04:55:32.776Z,99.90
2018-05-21T04:58:00.368Z,99.90
2018-05-21T05:00:28.035Z,99.90
2018-05-21T05:02:55.627Z,99.90
2018-05-21T05:05:23.257Z,99.90
2018-05-21T05:07:51.613Z,99.90
2018-05-21T05:10:19.207Z,99.90
2018-05-21T05:12:47.611Z,99.90
2018-05-21T05:15:15.191Z,99.90
2018-05-21T05:17:42.814Z,99.90
2018-05-21T05:20:11.219Z,99.90
2018-05-21T05:22:38.882Z,99.90
2018-05-21T05:25:06.490Z,99.90
2018-05-21T05:27:34.148Z,99.90
2018-05-21T05:30:01.744Z,99.90
2018-05-21T05:32:29.332Z,99.90
2018-05-21T05:34:57.732Z,99.90
2018-05-21T05:37:26.098Z,99.90
2018-05-21T05:39:54.906Z,99.90
2018-05-21T05:42:23.272Z,99.90
2018-05-21T05:44:51.648Z,99.90
2018-05-21T05:47:19.272Z,99.90
2018-05-21T05:49:47.096Z,99.90
2018-05-21T05:52:15.472Z,99.90
2018-05-21T05:54:43.062Z,99.90
2018-05-21T05:57:10.728Z,99.90
2018-05-21T05:59:38.405Z,99.90
2018-05-21T06:02:06.007Z,99.90
2018-05-21T06:04:33.606Z,99.90
2018-05-21T06:07:02.015Z,99.90
2018-05-21T06:09:29.623Z,99.90
2018-05-21T06:11:57.223Z,99.90
2018-05-21T06:14:24.859Z,99.90
2018-05-21T06:16:52.476Z,99.90
2018-05-21T06:19:20.294Z,99.90
2018-05-21T06:21:48.243Z,99.90
2018-05-21T06:24:15.849Z,99.90
2018-05-21T06:26:44.224Z,99.90
2018-05-21T06:29:11.857Z,99.90
2018-05-21T06:31:39.493Z,99.90
2018-05-21T06:34:07.271Z,99.90
2018-05-21T06:36:35.504Z,99.90
2018-05-21T06:39:03.136Z,99.90
2018-05-21T06:41:30.805Z,99.90
2018-05-21T06:43:58.407Z,99.90
2018-05-21T06:46:26.021Z,99.90
2018-05-21T06:48:53.676Z,99.90
2018-05-21T06:51:22.072Z,99.90
2018-05-21T06:53:49.699Z,99.90
2018-05-21T06:56:17.350Z,99.90
2018-05-21T06:58:44.970Z,99.90
2018-05-21T07:01:12.934Z,99.90
2018-05-21T07:03:40.556Z,99.90
2018-05-21T07:06:08.196Z,99.90
2018-05-21T07:08:35.847Z,99.90
2018-05-21T07:11:03.473Z,99.90
2018-05-21T07:13:31.071Z,99.90
2018-05-21T07:15:58.699Z,99.90
2018-05-21T07:18:26.315Z,99.90
2018-05-21T07:20:53.906Z,99.90
2018-05-21T07:23:21.535Z,99.90
2018-05-21T07:25:49.149Z,99.90
2018-05-21T07:28:17.146Z,99.90
2018-05-21T07:30:44.746Z,99.90
2018-05-21T07:33:12.379Z,99.90
2018-05-21T07:35:39.998Z,99.90
2018-05-21T07:38:07.639Z,99.70
2018-05-21T07:40:35.223Z,99.40
2018-05-21T07:43:02.860Z,98.80
2018-05-21T07:45:31.378Z,99.10
2018-05-21T07:47:58.996Z,98.60
2018-05-21T07:50:26.581Z,97.30
2018-05-21T07:52:54.926Z,95.10
2018-05-21T07:55:22.705Z,95.20
2018-05-21T07:57:50.318Z,99.20
2018-05-21T08:00:17.910Z,95.20
2018-05-21T08:02:45.928Z,96.20
2018-05-21T08:05:14.368Z,95.50
2018-05-21T08:07:41.942Z,95.60
2018-05-21T08:10:09.643Z,92.30
2018-05-21T08:12:37.988Z,92.90
2018-05-21T08:15:05.964Z,92.90
2018-05-21T08:17:33.593Z,91.90
2018-05-21T08:20:01.251Z,91.60
2018-05-21T08:22:29.762Z,90.50
2018-05-21T08:24:57.387Z,90.60
2018-05-21T08:27:25.816Z,83.40
2018-05-21T08:29:53.431Z,83.60
2018-05-21T08:32:21.871Z,86.00
2018-05-21T08:34:49.713Z,85.20
2018-05-21T08:37:17.323Z,79.30
2018-05-21T08:39:45.185Z,79.00
2018-05-21T08:42:13.056Z,83.40
2018-05-21T08:44:40.806Z,81.30
2018-05-21T08:47:08.398Z,80.10
2018-05-21T08:49:36.023Z,75.90
2018-05-21T08:52:03.609Z,76.80
2018-05-21T08:54:31.224Z,73.00
2018-05-21T08:57:00.256Z,75.80
2018-05-21T08:59:27.915Z,79.10
2018-05-21T09:01:55.538Z,73.40
2018-05-21T09:04:23.236Z,79.60
2018-05-21T09:06:50.885Z,75.00
2018-05-21T09:09:19.694Z,72.50
2018-05-21T09:11:48.052Z,71.90
2018-05-21T09:14:15.637Z,72.00
2018-05-21T09:16:44.026Z,72.40
2018-05-21T09:19:12.370Z,72.10
2018-05-21T09:21:39.989Z,72.10
2018-05-21T09:24:07.618Z,71.30
2018-05-21T09:26:35.322Z,68.90
2018-05-21T09:29:02.911Z,68.60
2018-05-21T09:31:30.557Z,65.10
2018-05-21T09:33:58.203Z,62.70
2018-05-21T09:36:26.117Z,61.20
2018-05-21T09:38:53.739Z,64.10
2018-05-21T09:41:21.412Z,66.40
2018-05-21T09:43:50.000Z,65.90
2018-05-21T09:46:18.356Z,59.80
2018-05-21T09:48:46.105Z,59.40
2018-05-21T09:51:13.687Z,60.00
2018-05-21T09:53:41.392Z,61.60
2018-05-21T09:56:09.795Z,59.80
2018-05-21T09:58:37.453Z,59.70
2018-05-21T10:01:05.087Z,58.60
2018-05-21T10:03:32.695Z,57.20
2018-05-21T10:06:01.090Z,56.70
2018-05-21T10:08:28.702Z,56.80
2018-05-21T10:10:56.361Z,55.10
2018-05-21T10:13:24.043Z,55.30
2018-05-21T10:15:52.411Z,59.50
2018-05-21T10:18:20.073Z,59.50
2018-05-21T10:20:47.695Z,58.70
2018-05-21T10:23:15.339Z,58.10
2018-05-21T10:25:43.724Z,62.50
2018-05-21T10:28:12.101Z,60.30
2018-05-21T10:30:40.503Z,60.20
2018-05-21T10:33:08.187Z,60.30
2018-05-21T10:35:35.852Z,55.00
2018-05-21T10:38:03.522Z,60.70
2018-05-21T10:40:31.153Z,56.30
2018-05-21T10:42:59.520Z,57.70
2018-05-21T10:45:27.160Z,57.70
2018-05-21T10:47:54.736Z,58.90
2018-05-21T10:50:22.348Z,57.80
2018-05-21T10:52:50.013Z,57.10
2018-05-21T10:55:18.404Z,54.20
2018-05-21T10:57:46.074Z,54.10
2018-05-21T11:00:13.661Z,57.10
2018-05-21T11:02:41.307Z,60.20
2018-05-21T11:05:08.945Z,57.60
2018-05-21T11:07:37.346Z,56.60
2018-05-21T11:10:05.739Z,55.80
2018-05-21T11:12:33.324Z,55.60
2018-05-21T11:15:01.308Z,51.70
2018-05-21T11:17:28.927Z,52.20
2018-05-21T11:19:57.278Z,53.80
2018-05-21T11:22:24.952Z,53.80
2018-05-21T11:24:52.566Z,52.30
2018-05-21T11:27:20.207Z,54.50
2018-05-21T11:29:48.579Z,53.30
2018-05-21T11:32:16.309Z,53.30
2018-05-21T11:34:43.902Z,55.70
2018-05-21T11:37:11.506Z,55.40
2018-05-21T11:39:39.119Z,56.00
2018-05-21T11:42:07.147Z,53.60
2018-05-21T11:44:34.744Z,54.50
2018-05-21T11:47:03.071Z,54.30
2018-05-21T11:49:31.490Z,52.70
2018-05-21T11:51:59.147Z,52.20
2018-05-21T11:54:26.735Z,54.00
2018-05-21T11:56:54.430Z,54.30
2018-05-21T11:59:22.222Z,50.70
2018-05-21T12:01:49.901Z,49.90
2018-05-21T12:04:17.476Z,50.80
2018-05-21T12:06:45.111Z,53.10
2018-05-21T12:09:13.069Z,51.60
2018-05-21T12:11:40.724Z,52.20
2018-05-21T12:14:08.313Z,51.40
2018-05-21T12:16:35.944Z,53.40
2018-05-21T12:19:03.589Z,53.40
2018-05-21T12:21:31.241Z,51.40
2018-05-21T12:23:59.819Z,51.90
2018-05-21T12:26:27.501Z,51.90
2018-05-21T12:28:55.467Z,50.40
2018-05-21T12:31:23.812Z,49.40
2018-05-21T12:33:51.431Z,49.50
2018-05-21T12:36:19.387Z,50.90
2018-05-21T12:38:47.745Z,49.60
2018-05-21T12:41:15.379Z,49.60
2018-05-21T12:43:43.009Z,50.10
2018-05-21T12:46:11.361Z,49.40
2018-05-21T12:48:39.031Z,49.40
2018-05-21T12:51:06.658Z,49.20
2018-05-21T12:53:34.312Z,49.50
2018-05-21T12:56:01.976Z,49.40
2018-05-21T12:58:29.563Z,48.80
2018-05-21T13:00:57.257Z,50.70
2018-05-21T13:03:24.888Z,48.90
2018-05-21T13:05:52.484Z,47.50
2018-05-21T13:08:21.167Z,50.10
2018-05-21T13:10:48.792Z,46.50
2018-05-21T13:13:16.381Z,47.20
2018-05-21T13:15:43.974Z,47.60
2018-05-21T13:18:11.618Z,49.30
2018-05-21T13:20:39.196Z,49.10
2018-05-21T13:23:06.793Z,48.00
2018-05-21T13:25:34.413Z,46.40
2018-05-21T13:28:02.057Z,48.80
2018-05-21T13:30:29.786Z,48.00
2018-05-21T13:32:57.379Z,47.40
2018-05-21T13:35:24.968Z,49.00
2018-05-21T13:37:52.655Z,47.10
2018-05-21T13:40:20.280Z,46.20
2018-05-21T13:42:48.243Z,49.60
2018-05-21T13:45:15.847Z,47.20
2018-05-21T13:47:43.448Z,46.70
2018-05-21T13:50:12.245Z,47.90
2018-05-21T13:52:40.602Z,46.80
2018-05-21T13:55:08.194Z,46.70
2018-05-21T13:57:37.329Z,45.20
2018-05-21T14:00:05.448Z,45.20
2018-05-21T14:02:33.834Z,46.70
2018-05-21T14:05:01.545Z,46.60
2018-05-21T14:07:29.290Z,49.30
2018-05-21T14:09:57.660Z,47.20
2018-05-21T14:15:23.778Z,46.30
2018-05-21T14:17:51.465Z,47.50
2018-05-21T14:20:19.080Z,47.10
2018-05-21T14:22:46.703Z,47.80
2018-05-21T14:25:15.197Z,47.50
2018-05-21T14:27:42.737Z,47.60
2018-05-21T14:30:10.397Z,45.20
2018-05-21T14:32:38.036Z,47.20
2018-05-21T14:35:05.661Z,47.80
2018-05-21T14:37:34.043Z,46.10
2018-05-21T14:40:02.420Z,47.50
2018-05-21T14:42:30.785Z,46.10
2018-05-21T14:44:58.402Z,46.10
2018-05-21T14:47:26.011Z,48.00
2018-05-21T14:49:53.642Z,49.50
2018-05-21T14:52:21.261Z,45.90
2018-05-21T14:54:48.888Z,46.00
2018-05-21T14:57:16.513Z,46.30
2018-05-21T14:59:44.891Z,45.40
2018-05-21T15:02:13.315Z,46.70
2018-05-21T15:04:40.920Z,46.70
2018-05-21T15:07:08.543Z,45.30
2018-05-21T15:09:36.132Z,46.50
2018-05-21T15:12:03.748Z,47.20
2018-05-21T15:14:31.386Z,48.20
2018-05-21T15:16:58.986Z,45.80
2018-05-21T15:19:26.603Z,45.20
2018-05-21T15:21:54.232Z,45.70
2018-05-21T15:24:21.861Z,45.80
2018-05-21T15:26:50.208Z,46.00
2018-05-21T15:29:17.804Z,45.70
2018-05-21T15:31:45.865Z,44.60
2018-05-21T15:34:13.492Z,46.00
2018-05-21T15:36:41.114Z,46.20
2018-05-21T15:39:09.541Z,46.60
2018-05-21T15:41:37.260Z,46.60
2018-05-21T15:44:05.631Z,46.70
2018-05-21T15:46:33.293Z,46.70
2018-05-21T15:49:00.888Z,46.90
2018-05-21T15:51:29.288Z,46.60
2018-05-21T15:53:56.895Z,47.30
2018-05-21T15:56:24.531Z,47.40
2018-05-21T15:58:52.155Z,47.80
2018-05-21T16:01:19.750Z,46.90
2018-05-21T16:03:47.366Z,48.40
2018-05-21T16:06:15.010Z,50.30
2018-05-21T16:08:42.677Z,48.10
2018-05-21T16:11:10.287Z,47.30
2018-05-21T16:13:37.905Z,46.80
2018-05-21T16:16:05.507Z,48.00
2018-05-21T16:18:33.126Z,49.40
2018-05-21T16:21:00.763Z,50.00
2018-05-21T16:23:29.115Z,48.50
2018-05-21T16:25:56.719Z,48.40
2018-05-21T16:28:25.115Z,46.70
2018-05-21T16:30:52.751Z,46.70
2018-05-21T16:33:20.374Z,47.70
2018-05-21T16:35:47.991Z,48.50
2018-05-21T16:38:16.380Z,47.30
2018-05-21T16:40:44.076Z,47.30
2018-05-21T16:43:11.731Z,49.10
2018-05-21T16:45:40.094Z,49.00
2018-05-21T16:48:08.502Z,48.70
2018-05-21T16:50:36.115Z,48.60
2018-05-21T16:53:03.765Z,50.20
2018-05-21T16:55:31.364Z,49.70
2018-05-21T16:57:59.034Z,50.10
2018-05-21T17:00:26.682Z,50.90
2018-05-21T17:02:54.422Z,48.40
2018-05-21T17:05:22.396Z,48.80
2018-05-21T17:07:50.006Z,49.60
2018-05-21T17:10:18.434Z,50.40
2018-05-21T17:12:46.048Z,50.50
2018-05-21T17:15:13.687Z,50.80
2018-05-21T17:17:41.309Z,50.20
2018-05-21T17:20:08.930Z,50.00
2018-05-21T17:22:36.560Z,50.00
2018-05-21T17:25:04.214Z,50.50
2018-05-21T17:27:31.880Z,50.50
2018-05-21T17:30:00.274Z,50.00
2018-05-21T17:32:27.905Z,50.00
2018-05-21T17:34:55.552Z,50.90
2018-05-21T17:37:23.499Z,51.60
2018-05-21T17:39:51.141Z,51.20
2018-05-21T17:42:18.857Z,53.20
2018-05-21T17:44:47.246Z,52.40
2018-05-21T17:47:14.867Z,52.70
2018-05-21T17:49:42.499Z,53.30
2018-05-21T17:52:10.144Z,52.50
2018-05-21T17:54:37.785Z,53.70
2018-05-21T17:57:05.406Z,53.00
2018-05-21T17:59:33.808Z,53.70
2018-05-21T18:02:01.448Z,53.70
2018-05-21T18:04:29.086Z,53.70
2018-05-21T18:06:56.746Z,53.50
2018-05-21T18:09:24.413Z,54.60
2018-05-21T18:11:52.040Z,54.10
2018-05-21T18:14:19.869Z,55.00
2018-05-21T18:16:47.508Z,55.40
2018-05-21T18:19:15.109Z,55.30
2018-05-21T18:21:42.737Z,54.90
2018-05-21T18:24:10.357Z,54.90
2018-05-21T18:26:38.787Z,56.40
2018-05-21T18:29:06.430Z,56.40
2018-05-21T18:31:34.070Z,55.90
2018-05-21T18:34:01.732Z,55.70
2018-05-21T18:36:30.126Z,56.30
2018-05-21T18:38:58.536Z,55.60
2018-05-21T18:41:26.561Z,55.50
2018-05-21T18:43:54.174Z,55.60
2018-05-21T18:46:21.820Z,56.20
2018-05-21T18:48:50.262Z,56.50
2018-05-21T18:51:17.919Z,56.40
2018-05-21T18:53:45.781Z,55.80
2018-05-21T18:56:15.013Z,56.50
2018-05-21T18:58:42.792Z,56.90
2018-05-21T19:01:10.454Z,56.40
2018-05-21T19:03:38.099Z,56.20
2018-05-21T19:06:05.759Z,57.40
2018-05-21T19:08:33.556Z,57.10
2018-05-21T19:11:01.233Z,57.60
2018-05-21T19:13:28.859Z,58.10
2018-05-21T19:15:56.491Z,58.20
2018-05-21T19:18:24.148Z,59.40
2018-05-21T19:20:51.842Z,59.90
2018-05-21T19:23:20.244Z,61.20
2018-05-21T19:25:48.657Z,61.30
2018-05-21T19:28:16.287Z,61.30
2018-05-21T19:30:44.632Z,62.00
2018-05-21T19:33:12.246Z,61.90
2018-05-21T19:35:39.849Z,62.90
2018-05-21T19:38:07.437Z,63.70
2018-05-21T19:40:35.047Z,63.40
2018-05-21T19:43:02.666Z,63.70
2018-05-21T19:45:30.272Z,64.40
2018-05-21T19:47:58.127Z,64.50
2018-05-21T19:50:26.829Z,67.60
2018-05-21T19:52:54.427Z,67.50
2018-05-21T19:55:22.046Z,67.20
2018-05-21T19:57:49.648Z,68.40
2018-05-21T20:00:17.314Z,67.70
2018-05-21T20:02:44.963Z,68.90
2018-05-21T20:05:13.329Z,68.40
2018-05-21T20:07:41.682Z,69.10
2018-05-21T20:10:09.296Z,68.40
2018-05-21T20:12:37.974Z,69.90
2018-05-21T20:15:05.582Z,69.90
2018-05-21T20:17:33.199Z,70.40
2018-05-21T20:20:01.541Z,70.60
2018-05-21T20:22:29.151Z,70.70
2018-05-21T20:24:57.505Z,71.90
2018-05-21T20:27:25.157Z,71.70
2018-05-21T20:29:53.053Z,73.80
2018-05-21T20:32:20.740Z,73.70
2018-05-21T20:34:49.135Z,74.70
2018-05-21T20:37:17.577Z,73.90
2018-05-21T20:39:45.257Z,74.00
2018-05-21T20:42:12.874Z,75.40
2018-05-21T20:44:40.464Z,75.40
2018-05-21T20:47:08.131Z,76.90
2018-05-21T20:49:35.820Z,77.20
2018-05-21T20:52:04.304Z,79.60
2018-05-21T20:54:31.956Z,79.70
2018-05-21T20:56:59.568Z,81.70
2018-05-21T20:59:27.916Z,85.70
2018-05-21T21:01:55.564Z,85.80
2018-05-21T21:04:23.211Z,86.30
2018-05-21T21:06:50.881Z,87.30
2018-05-21T21:09:18.518Z,89.40
2018-05-21T21:11:46.867Z,92.00
2018-05-21T21:14:14.664Z,92.10
2018-05-21T21:16:43.028Z,94.10
2018-05-21T21:19:10.602Z,94.10
2018-05-21T21:21:38.390Z,96.10
2018-05-21T21:24:06.760Z,96.40
2018-05-21T21:26:34.344Z,96.40
2018-05-21T21:29:01.971Z,96.50
2018-05-21T21:31:29.576Z,96.90
2018-05-21T21:33:57.955Z,98.60
2018-05-21T21:36:26.304Z,99.10
2018-05-21T21:38:53.940Z,99.00
2018-05-21T21:41:21.558Z,98.80
2018-05-21T21:43:49.139Z,99.90
2018-05-21T21:46:17.514Z,99.90
2018-05-21T21:48:45.219Z,99.90
2018-05-21T21:51:12.809Z,99.90
2018-05-21T21:53:40.424Z,99.90
2018-05-21T21:56:08.782Z,99.90
2018-05-21T21:58:36.401Z,99.90
2018-05-21T22:01:04.067Z,99.90
2018-05-21T22:03:31.707Z,99.90
2018-05-21T22:06:00.052Z,99.90
2018-05-21T22:08:27.635Z,99.90
2018-05-21T22:10:56.034Z,99.90
2018-05-21T22:13:24.392Z,99.90
2018-05-21T22:15:51.997Z,99.90
2018-05-21T22:18:19.588Z,99.90
2018-05-21T22:20:47.199Z,99.90
2018-05-21T22:23:14.789Z,99.90
2018-05-21T22:25:42.383Z,99.90
2018-05-21T22:28:10.000Z,99.90
2018-05-21T22:30:38.383Z,99.90
2018-05-21T22:33:06.733Z,99.90
2018-05-21T22:35:34.547Z,99.90
2018-05-21T22:38:02.898Z,99.90
2018-05-21T22:40:30.475Z,99.90
2018-05-21T22:42:58.096Z,99.90
2018-05-21T22:45:25.713Z,99.90
2018-05-21T22:47:54.066Z,99.90
2018-05-21T22:50:22.782Z,99.90
2018-05-21T22:52:51.134Z,99.90
2018-05-21T22:55:18.725Z,99.90
2018-05-21T22:57:46.721Z,99.90
2018-05-21T23:00:15.075Z,99.90
2018-05-21T23:02:42.677Z,99.90
2018-05-21T23:05:11.063Z,99.90
2018-05-21T23:07:38.748Z,99.90
2018-05-21T23:10:06.323Z,99.90
2018-05-21T23:12:33.908Z,99.90
2018-05-21T23:15:01.541Z,99.90
2018-05-21T23:17:29.165Z,99.90
2018-05-21T23:19:56.782Z,99.90
2018-05-21T23:22:36.202Z,99.90
2018-05-21T23:25:03.819Z,99.90
2018-05-21T23:27:31.480Z,99.90
2018-05-21T23:29:59.066Z,99.90
2018-05-21T23:32:26.681Z,99.90
2018-05-21T23:34:54.309Z,99.90
2018-05-21T23:37:22.652Z,99.90
2018-05-21T23:39:50.273Z,99.90
2018-05-21T23:42:17.860Z,99.90
2018-05-21T23:44:45.485Z,99.90
2018-05-21T23:47:13.095Z,99.90
2018-05-21T23:49:40.761Z,99.90
2018-05-21T23:52:08.357Z,99.90
2018-05-21T23:54:35.963Z,99.90
2018-05-21T23:57:04.344Z,99.90
2018-05-21T23:59:33.480Z,99.90
